Astatula, Florida
Current Conditions -  °F | °C
As of 3:53 PM on Friday 31 Oct 2014 (Local Time) from KLEE Reporting Station
Clear Clear  
Wind Chill: 76°   Ceiling: Unl
Heat Index: 76°   Visibility: 10mi
Dew Point: 47°   Wind: 15mph
Humidity: 36%   Direction: 330°NNW
Pressure: 29.81"   Gusts: NA
Location:  28.71°N, 81.73°W
Report Text: KLEE 311953Z AUTO 33013KT 10SM CLR 24/08 A2981 RMK AO2 SLP094 T02440083
Loading
Personal Weather Stations






























Interactive Weather Map
Tropical Storm Tracking
New forecast layout! Learn more

10-Day Weather Forecast

Advertisements
Track Severe Weather on mobile